FLIGHT INFORMATION
United Airlines

UAL1114

At Arrival Gate

KORD
 KIAD
DATE: 2019-11-14
GATE: B11
GATE DEPARTURE: 00:05
TAKEOFF: 00:22
DATE: 2019-11-15
GATE:  -
LANDING: 01:40
GATE ARRIVAL: 01:49
FLIGHT DATA
Crew: AARON BUCHANAN
Speed: 463 kts Altitude: 37000 ft
Stage Length: 510 nm
Route: 
Block Time: 1.7 Flight Time: 1.3
Fuel Used: 8580 LB
TRACK DATA
50000 FT1000 KTAltitudeSpeed
AIRCRAFT INFORMATION
Aircraft Type: B738SSW
Registration: N37267
SELCAL:  MSN/LN: 31586 / 939
Operator: UNITED AIRLINES
Flights: 26 Block Time: 66.1 Flight Time: 59.4
Fuel Used: 394987 LB
  • DEPARTURE INFORMATION
    Date: 2019-11-14
    Airport: KORD
    Gate: B11
    Gate Departure: 00:05
    Takeoff: 00:22
    ARRIVAL INFORMATION
    Date: 2019-11-15
    Airport: KIAD
    Gate:  -
    Landing: 01:40
    Gate Arrival: 01:49
  • FLIGHT DATA
    Crew: AARON BUCHANAN
    Speed: 463 kts Altitude: 37000 ft
    Stage Length: 275 nm
    Route: 
    Block Time: 1.7 Flight Time: 1.3
    Fuel Used: 8580 LB
  • AIRCRAFT INFORMATION
    Aircraft Type: B738SSW
    Registration: N37267
    SELCAL:  MSN/LN: 31586 / 939
    Operator: United Airlines
    Flights: 26 Block Time: 66.1 Flight Time: 59.4
    Fuel Used: 394987 LB

DATALINK LOG | Newest first | Current as of: 2020-05-31 19:06:48
LABEL ID SEQUENCE CONTENT Dn/Up
2U0054KIAD 142352Z 13003KT 10SM SCT150 M01/M07 A3032 RMK AO2 SLP271 T10111072 10056 21022 53001▲ Up
5U0044KIAD 150404Z 16004KT 10SM SCT150 M01/M07 A3032▲ Up
2S0054KIAD▼ Dn
5S0044KIAD▼ Dn
463033/OV MOBILE/270/10 /TM 0029 /FL012 /TP B738 /SK BKN /TA -22 /WV 296/22 /RM NONE▼ Dn
A30237CLEARED TO KIAD VIA MOBLE ADIME OTENS ANEWA JERRI NUSMM MGW. SQUAWK 2060.▲ Up
B35315KORD KIAD UAL1114 N37267 ▼ Dn
A70026CLEARANCE AVAIL WITHIN 0:25 OF EDT▲ Up
A75825CLEARANCE AVAIL WITHIN 0:25 OF EDT▲ Up
B35146KORD KIAD UAL1114 N37267 ▼ Dn
Q04800[LINK TEST]▼ Dn
Q05523[LINK ACK]▲ Up


AIRCRAFT HISTORY